sensor_id;sensor_type;location;lat;lon;timestamp;temperature;humidity
15364;DHT22;7781;49.690;6.472;2023-07-20T00:01:49;13.80;99.90
15364;DHT22;7781;49.690;6.472;2023-07-20T00:04:36;13.70;99.90
15364;DHT22;7781;49.690;6.472;2023-07-20T00:07:05;13.60;99.90
15364;DHT22;7781;49.690;6.472;2023-07-20T00:09:36;13.50;99.90
15364;DHT22;7781;49.690;6.472;2023-07-20T00:12:08;13.50;99.90
15364;DHT22;7781;49.690;6.472;2023-07-20T00:14:39;13.40;99.90
15364;DHT22;7781;49.690;6.472;2023-07-20T00:17:08;13.30;99.90
15364;DHT22;7781;49.690;6.472;2023-07-20T00:19:38;13.30;99.90
15364;DHT22;7781;49.690;6.472;2023-07-20T00:22:11;13.30;99.90
15364;DHT22;7781;49.690;6.472;2023-07-20T00:24:40;13.30;99.90
15364;DHT22;7781;49.690;6.472;2023-07-20T00:27:11;13.30;99.90
15364;DHT22;7781;49.690;6.472;2023-07-20T00:29:40;13.30;99.90
15364;DHT22;7781;49.690;6.472;2023-07-20T00:32:09;13.30;99.90
15364;DHT22;7781;49.690;6.472;2023-07-20T00:34:38;13.30;99.90
15364;DHT22;7781;49.690;6.472;2023-07-20T00:37:09;13.20;99.90
15364;DHT22;7781;49.690;6.472;2023-07-20T00:39:38;13.20;99.90
15364;DHT22;7781;49.690;6.472;2023-07-20T00:42:06;13.20;99.90
15364;DHT22;7781;49.690;6.472;2023-07-20T00:44:37;13.10;99.90
15364;DHT22;7781;49.690;6.472;2023-07-20T00:47:06;13.00;99.90
15364;DHT22;7781;49.690;6.472;2023-07-20T00:49:35;13.00;99.90
15364;DHT22;7781;49.690;6.472;2023-07-20T00:52:07;13.00;99.90
15364;DHT22;7781;49.690;6.472;2023-07-20T00:54:37;12.90;99.90
15364;DHT22;7781;49.690;6.472;2023-07-20T00:57:07;12.90;99.90
15364;DHT22;7781;49.690;6.472;2023-07-20T00:59:37;12.90;99.90
15364;DHT22;7781;49.690;6.472;2023-07-20T01:02:06;12.90;99.90
15364;DHT22;7781;49.690;6.472;2023-07-20T01:04:35;12.80;99.90
15364;DHT22;7781;49.690;6.472;2023-07-20T01:07:12;12.70;99.90
15364;DHT22;7781;49.690;6.472;2023-07-20T01:09:49;12.60;99.90
15364;DHT22;7781;49.690;6.472;2023-07-20T01:12:26;12.70;99.90
15364;DHT22;7781;49.690;6.472;2023-07-20T01:14:57;12.70;99.90
15364;DHT22;7781;49.690;6.472;2023-07-20T01:17:27;12.60;99.90
15364;DHT22;7781;49.690;6.472;2023-07-20T01:19:56;12.60;99.90
15364;DHT22;7781;49.690;6.472;2023-07-20T01:22:47;12.60;99.90
15364;DHT22;7781;49.690;6.472;2023-07-20T01:25:34;12.60;99.90
15364;DHT22;7781;49.690;6.472;2023-07-20T01:28:19;12.60;99.90
15364;DHT22;7781;49.690;6.472;2023-07-20T01:30:57;12.70;99.90
15364;DHT22;7781;49.690;6.472;2023-07-20T01:33:31;12.70;99.90
15364;DHT22;7781;49.690;6.472;2023-07-20T01:36:02;12.60;99.90
15364;DHT22;7781;49.690;6.472;2023-07-20T01:38:32;12.60;99.90
15364;DHT22;7781;49.690;6.472;2023-07-20T01:41:02;12.60;99.90
15364;DHT22;7781;49.690;6.472;2023-07-20T01:43:31;12.60;99.90
15364;DHT22;7781;49.690;6.472;2023-07-20T01:46:00;12.60;99.90
15364;DHT22;7781;49.690;6.472;2023-07-20T01:48:30;12.50;99.90
15364;DHT22;7781;49.690;6.472;2023-07-20T01:50:59;12.50;99.90
15364;DHT22;7781;49.690;6.472;2023-07-20T01:53:29;12.40;99.90
15364;DHT22;7781;49.690;6.472;2023-07-20T01:55:58;12.30;99.90
15364;DHT22;7781;49.690;6.472;2023-07-20T01:58:29;12.30;99.90
15364;DHT22;7781;49.690;6.472;2023-07-20T02:00:58;12.20;99.90
15364;DHT22;7781;49.690;6.472;2023-07-20T02:03:27;12.10;99.90
15364;DHT22;7781;49.690;6.472;2023-07-20T02:05:59;12.10;99.90
15364;DHT22;7781;49.690;6.472;2023-07-20T02:08:28;12.10;99.90
15364;DHT22;7781;49.690;6.472;2023-07-20T02:10:57;12.10;99.90
15364;DHT22;7781;49.690;6.472;2023-07-20T02:13:25;12.10;99.90
15364;DHT22;7781;49.690;6.472;2023-07-20T02:15:55;12.00;99.90
15364;DHT22;7781;49.690;6.472;2023-07-20T02:18:24;11.90;99.90
15364;DHT22;7781;49.690;6.472;2023-07-20T02:24:45;12.00;99.90
15364;DHT22;7781;49.690;6.472;2023-07-20T02:27:14;11.90;99.90
15364;DHT22;7781;49.690;6.472;2023-07-20T02:29:43;11.90;99.90
15364;DHT22;7781;49.690;6.472;2023-07-20T02:32:12;12.00;99.90
15364;DHT22;7781;49.690;6.472;2023-07-20T02:34:41;12.00;99.90
15364;DHT22;7781;49.690;6.472;2023-07-20T02:37:10;12.00;99.90
15364;DHT22;7781;49.690;6.472;2023-07-20T02:39:42;12.00;99.90
15364;DHT22;7781;49.690;6.472;2023-07-20T02:42:11;12.00;99.90
15364;DHT22;7781;49.690;6.472;2023-07-20T02:44:41;12.00;99.90
15364;DHT22;7781;49.690;6.472;2023-07-20T02:47:10;11.90;99.90
15364;DHT22;7781;49.690;6.472;2023-07-20T02:49:39;11.80;99.90
15364;DHT22;7781;49.690;6.472;2023-07-20T02:52:09;11.80;99.90
15364;DHT22;7781;49.690;6.472;2023-07-20T02:54:38;11.80;99.90
15364;DHT22;7781;49.690;6.472;2023-07-20T02:57:09;11.80;99.90
15364;DHT22;7781;49.690;6.472;2023-07-20T02:59:37;11.80;99.90
15364;DHT22;7781;49.690;6.472;2023-07-20T03:02:07;11.80;99.90
15364;DHT22;7781;49.690;6.472;2023-07-20T03:04:38;11.80;99.90
15364;DHT22;7781;49.690;6.472;2023-07-20T03:07:07;11.80;99.90
15364;DHT22;7781;49.690;6.472;2023-07-20T03:09:37;11.80;99.90
15364;DHT22;7781;49.690;6.472;2023-07-20T03:12:09;11.70;99.90
15364;DHT22;7781;49.690;6.472;2023-07-20T03:14:40;11.70;99.90
15364;DHT22;7781;49.690;6.472;2023-07-20T03:17:09;11.60;99.90
15364;DHT22;7781;49.690;6.472;2023-07-20T03:19:38;11.60;99.90
15364;DHT22;7781;49.690;6.472;2023-07-20T03:22:07;11.60;99.90
15364;DHT22;7781;49.690;6.472;2023-07-20T03:24:38;11.60;99.90
15364;DHT22;7781;49.690;6.472;2023-07-20T03:27:07;11.50;99.90
15364;DHT22;7781;49.690;6.472;2023-07-20T03:29:37;11.50;99.90
15364;DHT22;7781;49.690;6.472;2023-07-20T03:32:06;11.50;99.90
15364;DHT22;7781;49.690;6.472;2023-07-20T03:34:35;11.50;99.90
15364;DHT22;7781;49.690;6.472;2023-07-20T03:37:05;11.50;99.90
15364;DHT22;7781;49.690;6.472;2023-07-20T03:39:34;11.50;99.90
15364;DHT22;7781;49.690;6.472;2023-07-20T03:42:03;11.40;99.90
15364;DHT22;7781;49.690;6.472;2023-07-20T03:44:34;11.40;99.90
15364;DHT22;7781;49.690;6.472;2023-07-20T03:47:05;11.50;99.90
15364;DHT22;7781;49.690;6.472;2023-07-20T03:49:34;11.50;99.90
15364;DHT22;7781;49.690;6.472;2023-07-20T03:52:04;11.50;99.90
15364;DHT22;7781;49.690;6.472;2023-07-20T03:54:32;11.60;99.90
15364;DHT22;7781;49.690;6.472;2023-07-20T03:57:01;11.60;99.90
15364;DHT22;7781;49.690;6.472;2023-07-20T03:59:29;11.60;99.90
15364;DHT22;7781;49.690;6.472;2023-07-20T04:01:58;11.60;99.90
15364;DHT22;7781;49.690;6.472;2023-07-20T04:04:29;11.70;99.90
15364;DHT22;7781;49.690;6.472;2023-07-20T04:06:57;11.70;99.90
15364;DHT22;7781;49.690;6.472;2023-07-20T04:09:26;11.70;99.90
15364;DHT22;7781;49.690;6.472;2023-07-20T04:11:54;11.60;99.90
15364;DHT22;7781;49.690;6.472;2023-07-20T04:14:45;11.60;99.90
15364;DHT22;7781;49.690;6.472;2023-07-20T04:17:15;11.60;99.90
15364;DHT22;7781;49.690;6.472;2023-07-20T04:19:46;11.60;99.90
15364;DHT22;7781;49.690;6.472;2023-07-20T04:22:16;11.60;99.90
15364;DHT22;7781;49.690;6.472;2023-07-20T04:24:44;11.60;99.90
15364;DHT22;7781;49.690;6.472;2023-07-20T04:27:14;11.60;99.90
15364;DHT22;7781;49.690;6.472;2023-07-20T04:29:42;11.60;99.90
15364;DHT22;7781;49.690;6.472;2023-07-20T04:32:12;11.60;99.90
15364;DHT22;7781;49.690;6.472;2023-07-20T04:34:41;11.60;99.90
15364;DHT22;7781;49.690;6.472;2023-07-20T04:37:13;11.60;99.90
15364;DHT22;7781;49.690;6.472;2023-07-20T04:39:42;11.60;99.90
15364;DHT22;7781;49.690;6.472;2023-07-20T04:42:11;11.60;99.90
15364;DHT22;7781;49.690;6.472;2023-07-20T04:44:40;11.70;99.90
15364;DHT22;7781;49.690;6.472;2023-07-20T04:47:09;11.70;99.90
15364;DHT22;7781;49.690;6.472;2023-07-20T04:49:38;11.70;99.90
15364;DHT22;7781;49.690;6.472;2023-07-20T04:52:07;11.70;99.90
15364;DHT22;7781;49.690;6.472;2023-07-20T04:54:37;11.70;99.90
15364;DHT22;7781;49.690;6.472;2023-07-20T04:57:10;11.80;99.90
15364;DHT22;7781;49.690;6.472;2023-07-20T04:59:48;11.80;99.90
15364;DHT22;7781;49.690;6.472;2023-07-20T05:02:16;11.90;99.90
15364;DHT22;7781;49.690;6.472;2023-07-20T05:04:46;11.90;99.90
15364;DHT22;7781;49.690;6.472;2023-07-20T05:07:14;12.00;99.90
15364;DHT22;7781;49.690;6.472;2023-07-20T05:09:45;12.10;99.90
15364;DHT22;7781;49.690;6.472;2023-07-20T05:12:14;12.10;99.90
15364;DHT22;7781;49.690;6.472;2023-07-20T05:14:47;12.20;99.90
15364;DHT22;7781;49.690;6.472;2023-07-20T05:17:16;12.30;99.90
15364;DHT22;7781;49.690;6.472;2023-07-20T05:19:46;12.40;99.90
15364;DHT22;7781;49.690;6.472;2023-07-20T05:22:15;12.50;99.90
15364;DHT22;7781;49.690;6.472;2023-07-20T05:24:45;12.60;99.90
15364;DHT22;7781;49.690;6.472;2023-07-20T05:27:13;12.70;99.90
15364;DHT22;7781;49.690;6.472;2023-07-20T05:29:43;12.80;99.90
15364;DHT22;7781;49.690;6.472;2023-07-20T05:32:13;12.90;99.90
15364;DHT22;7781;49.690;6.472;2023-07-20T05:34:42;13.10;99.90
15364;DHT22;7781;49.690;6.472;2023-07-20T05:37:13;13.20;99.90
15364;DHT22;7781;49.690;6.472;2023-07-20T05:39:41;13.40;99.90
15364;DHT22;7781;49.690;6.472;2023-07-20T05:42:11;13.50;99.90
15364;DHT22;7781;49.690;6.472;2023-07-20T05:44:41;13.70;99.90
15364;DHT22;7781;49.690;6.472;2023-07-20T05:47:09;13.80;99.90
15364;DHT22;7781;49.690;6.472;2023-07-20T05:49:38;13.80;99.90
15364;DHT22;7781;49.690;6.472;2023-07-20T05:52:07;13.90;99.90
15364;DHT22;7781;49.690;6.472;2023-07-20T05:54:37;14.00;99.90
15364;DHT22;7781;49.690;6.472;2023-07-20T05:57:05;14.10;99.90
15364;DHT22;7781;49.690;6.472;2023-07-20T05:59:36;14.20;99.90
15364;DHT22;7781;49.690;6.472;2023-07-20T06:02:07;14.40;99.90
15364;DHT22;7781;49.690;6.472;2023-07-20T06:04:38;14.40;99.90
15364;DHT22;7781;49.690;6.472;2023-07-20T06:07:07;14.60;99.90
15364;DHT22;7781;49.690;6.472;2023-07-20T06:09:36;14.60;99.90
15364;DHT22;7781;49.690;6.472;2023-07-20T06:12:06;14.70;99.90
15364;DHT22;7781;49.690;6.472;2023-07-20T06:14:36;14.80;99.90
15364;DHT22;7781;49.690;6.472;2023-07-20T06:17:05;14.90;99.90
15364;DHT22;7781;49.690;6.472;2023-07-20T06:19:33;15.00;99.90
15364;DHT22;7781;49.690;6.472;2023-07-20T06:22:02;15.10;99.90
15364;DHT22;7781;49.690;6.472;2023-07-20T06:24:31;15.20;99.90
15364;DHT22;7781;49.690;6.472;2023-07-20T06:27:00;15.30;99.90
15364;DHT22;7781;49.690;6.472;2023-07-20T06:29:29;15.40;99.90
15364;DHT22;7781;49.690;6.472;2023-07-20T06:32:00;15.50;99.90
15364;DHT22;7781;49.690;6.472;2023-07-20T06:34:28;15.60;99.90
15364;DHT22;7781;49.690;6.472;2023-07-20T06:36:58;15.70;99.90
15364;DHT22;7781;49.690;6.472;2023-07-20T06:39:26;15.80;99.90
15364;DHT22;7781;49.690;6.472;2023-07-20T06:41:59;15.90;99.90
15364;DHT22;7781;49.690;6.472;2023-07-20T06:44:28;16.10;99.90
15364;DHT22;7781;49.690;6.472;2023-07-20T06:46:57;16.10;99.90
15364;DHT22;7781;49.690;6.472;2023-07-20T06:49:28;16.10;99.90
15364;DHT22;7781;49.690;6.472;2023-07-20T06:51:56;16.10;99.90
15364;DHT22;7781;49.690;6.472;2023-07-20T06:54:25;16.20;99.90
15364;DHT22;7781;49.690;6.472;2023-07-20T06:56:53;16.30;99.90
15364;DHT22;7781;49.690;6.472;2023-07-20T06:59:24;16.30;99.90
15364;DHT22;7781;49.690;6.472;2023-07-20T07:01:53;16.40;99.90
15364;DHT22;7781;49.690;6.472;2023-07-20T07:04:22;16.50;99.90
15364;DHT22;7781;49.690;6.472;2023-07-20T07:06:52;16.60;99.90
15364;DHT22;7781;49.690;6.472;2023-07-20T07:09:21;16.70;99.90
15364;DHT22;7781;49.690;6.472;2023-07-20T07:11:49;16.80;99.90
15364;DHT22;7781;49.690;6.472;2023-07-20T07:14:20;16.80;99.90
15364;DHT22;7781;49.690;6.472;2023-07-20T07:16:52;16.70;99.90
15364;DHT22;7781;49.690;6.472;2023-07-20T07:19:27;16.80;99.90
15364;DHT22;7781;49.690;6.472;2023-07-20T07:21:58;16.80;99.90
15364;DHT22;7781;49.690;6.472;2023-07-20T07:24:28;16.90;99.90
15364;DHT22;7781;49.690;6.472;2023-07-20T07:27:02;16.90;99.90
15364;DHT22;7781;49.690;6.472;2023-07-20T07:29:30;17.00;99.90
15364;DHT22;7781;49.690;6.472;2023-07-20T07:32:00;17.10;99.90
15364;DHT22;7781;49.690;6.472;2023-07-20T07:34:30;17.00;99.90
15364;DHT22;7781;49.690;6.472;2023-07-20T07:37:03;17.10;99.90
15364;DHT22;7781;49.690;6.472;2023-07-20T07:39:34;17.20;99.90
15364;DHT22;7781;49.690;6.472;2023-07-20T07:42:02;17.30;99.90
15364;DHT22;7781;49.690;6.472;2023-07-20T07:44:32;17.40;99.90
15364;DHT22;7781;49.690;6.472;2023-07-20T07:47:00;17.50;99.90
15364;DHT22;7781;49.690;6.472;2023-07-20T07:49:29;17.50;99.90
15364;DHT22;7781;49.690;6.472;2023-07-20T07:51:58;17.60;99.90
15364;DHT22;7781;49.690;6.472;2023-07-20T07:54:30;17.70;99.90
15364;DHT22;7781;49.690;6.472;2023-07-20T07:56:59;17.90;99.90
15364;DHT22;7781;49.690;6.472;2023-07-20T07:59:28;18.00;94.80
15364;DHT22;7781;49.690;6.472;2023-07-20T08:01:59;18.10;94.40
15364;DHT22;7781;49.690;6.472;2023-07-20T08:04:27;18.20;95.80
15364;DHT22;7781;49.690;6.472;2023-07-20T08:06:56;18.20;95.00
15364;DHT22;7781;49.690;6.472;2023-07-20T08:09:25;18.30;92.90
15364;DHT22;7781;49.690;6.472;2023-07-20T08:11:56;18.40;93.60
15364;DHT22;7781;49.690;6.472;2023-07-20T08:14:24;18.60;91.20
15364;DHT22;7781;49.690;6.472;2023-07-20T08:16:53;18.70;90.20
15364;DHT22;7781;49.690;6.472;2023-07-20T08:19:22;18.80;76.60
15364;DHT22;7781;49.690;6.472;2023-07-20T08:21:52;18.90;75.20
15364;DHT22;7781;49.690;6.472;2023-07-20T08:24:21;19.10;64.90
15364;DHT22;7781;49.690;6.472;2023-07-20T08:26:50;19.10;61.20
15364;DHT22;7781;49.690;6.472;2023-07-20T08:29:20;19.10;65.20
15364;DHT22;7781;49.690;6.472;2023-07-20T08:31:48;19.20;68.30
15364;DHT22;7781;49.690;6.472;2023-07-20T08:34:17;19.30;61.00
15364;DHT22;7781;49.690;6.472;2023-07-20T08:36:57;19.40;53.60
15364;DHT22;7781;49.690;6.472;2023-07-20T08:39:25;19.40;52.20
15364;DHT22;7781;49.690;6.472;2023-07-20T08:41:55;19.50;59.20
15364;DHT22;7781;49.690;6.472;2023-07-20T08:44:28;19.60;58.40
15364;DHT22;7781;49.690;6.472;2023-07-20T08:46:58;19.80;46.80
15364;DHT22;7781;49.690;6.472;2023-07-20T08:49:27;19.90;54.60
15364;DHT22;7781;49.690;6.472;2023-07-20T08:51:57;20.00;49.40
15364;DHT22;7781;49.690;6.472;2023-07-20T08:54:30;20.10;43.40
15364;DHT22;7781;49.690;6.472;2023-07-20T08:57:03;20.10;45.40
15364;DHT22;7781;49.690;6.472;2023-07-20T08:59:34;20.10;43.10
15364;DHT22;7781;49.690;6.472;2023-07-20T09:02:05;20.20;42.40
15364;DHT22;7781;49.690;6.472;2023-07-20T09:04:44;20.30;38.80
15364;DHT22;7781;49.690;6.472;2023-07-20T09:07:13;20.50;29.80
15364;DHT22;7781;49.690;6.472;2023-07-20T09:09:42;20.40;30.70
15364;DHT22;7781;49.690;6.472;2023-07-20T09:12:14;20.40;46.50
15364;DHT22;7781;49.690;6.472;2023-07-20T09:14:45;20.40;30.00
15364;DHT22;7781;49.690;6.472;2023-07-20T09:17:14;20.50;31.80
15364;DHT22;7781;49.690;6.472;2023-07-20T09:19:47;20.50;31.00
15364;DHT22;7781;49.690;6.472;2023-07-20T09:22:16;20.60;30.60
15364;DHT22;7781;49.690;6.472;2023-07-20T09:24:45;20.70;28.60
15364;DHT22;7781;49.690;6.472;2023-07-20T09:27:13;20.70;37.30
15364;DHT22;7781;49.690;6.472;2023-07-20T09:29:50;20.60;35.50
15364;DHT22;7781;49.690;6.472;2023-07-20T09:32:19;20.60;32.40
15364;DHT22;7781;49.690;6.472;2023-07-20T09:34:52;20.70;43.30
15364;DHT22;7781;49.690;6.472;2023-07-20T09:37:21;20.70;58.20
15364;DHT22;7781;49.690;6.472;2023-07-20T09:39:52;20.80;78.40
15364;DHT22;7781;49.690;6.472;2023-07-20T09:42:25;20.80;95.40
15364;DHT22;7781;49.690;6.472;2023-07-20T09:44:58;20.90;70.80
15364;DHT22;7781;49.690;6.472;2023-07-20T09:47:27;21.10;80.70
15364;DHT22;7781;49.690;6.472;2023-07-20T09:49:58;21.30;93.10
15364;DHT22;7781;49.690;6.472;2023-07-20T09:52:31;21.40;99.90
15364;DHT22;7781;49.690;6.472;2023-07-20T09:55:03;21.30;98.10
15364;DHT22;7781;49.690;6.472;2023-07-20T09:57:33;21.30;99.90
15364;DHT22;7781;49.690;6.472;2023-07-20T10:00:05;21.30;98.20
15364;DHT22;7781;49.690;6.472;2023-07-20T10:02:43;21.40;99.90
15364;DHT22;7781;49.690;6.472;2023-07-20T10:05:13;21.40;99.90
15364;DHT22;7781;49.690;6.472;2023-07-20T10:07:44;21.50;99.90
15364;DHT22;7781;49.690;6.472;2023-07-20T10:10:16;21.60;99.90
15364;DHT22;7781;49.690;6.472;2023-07-20T10:12:47;21.80;99.90
15364;DHT22;7781;49.690;6.472;2023-07-20T10:15:20;21.90;99.90
15364;DHT22;7781;49.690;6.472;2023-07-20T10:17:59;22.10;99.90
15364;DHT22;7781;49.690;6.472;2023-07-20T10:20:33;22.10;99.90
15364;DHT22;7781;49.690;6.472;2023-07-20T10:23:04;21.80;99.90
15364;DHT22;7781;49.690;6.472;2023-07-20T10:25:33;21.70;99.90
15364;DHT22;7781;49.690;6.472;2023-07-20T10:28:05;21.80;99.90
15364;DHT22;7781;49.690;6.472;2023-07-20T10:30:37;21.90;99.90
15364;DHT22;7781;49.690;6.472;2023-07-20T10:33:06;22.10;99.90
15364;DHT22;7781;49.690;6.472;2023-07-20T10:35:50;22.30;99.90
15364;DHT22;7781;49.690;6.472;2023-07-20T10:38:20;22.60;99.90
15364;DHT22;7781;49.690;6.472;2023-07-20T10:40:55;22.60;99.90
15364;DHT22;7781;49.690;6.472;2023-07-20T10:43:24;22.80;99.90
15364;DHT22;7781;49.690;6.472;2023-07-20T10:45:54;23.10;99.90
15364;DHT22;7781;49.690;6.472;2023-07-20T10:48:24;23.40;99.90
15364;DHT22;7781;49.690;6.472;2023-07-20T10:51:08;23.60;99.90
15364;DHT22;7781;49.690;6.472;2023-07-20T10:53:37;24.00;99.90
15364;DHT22;7781;49.690;6.472;2023-07-20T10:56:07;24.20;99.90
15364;DHT22;7781;49.690;6.472;2023-07-20T10:58:36;24.40;99.90
15364;DHT22;7781;49.690;6.472;2023-07-20T11:01:06;24.00;99.90
15364;DHT22;7781;49.690;6.472;2023-07-20T11:03:36;24.00;99.90
15364;DHT22;7781;49.690;6.472;2023-07-20T11:06:29;24.20;99.90
15364;DHT22;7781;49.690;6.472;2023-07-20T11:09:05;24.50;99.90
15364;DHT22;7781;49.690;6.472;2023-07-20T11:11:36;24.60;99.90
15364;DHT22;7781;49.690;6.472;2023-07-20T11:14:06;25.00;99.90
15364;DHT22;7781;49.690;6.472;2023-07-20T11:16:43;25.20;99.90
15364;DHT22;7781;49.690;6.472;2023-07-20T11:19:16;25.30;99.90
15364;DHT22;7781;49.690;6.472;2023-07-20T11:21:51;25.20;99.90
15364;DHT22;7781;49.690;6.472;2023-07-20T11:24:29;25.20;99.90
15364;DHT22;7781;49.690;6.472;2023-07-20T11:26:58;25.40;99.90
15364;DHT22;7781;49.690;6.472;2023-07-20T11:29:27;25.70;99.90
15364;DHT22;7781;49.690;6.472;2023-07-20T11:32:01;25.80;99.90
15364;DHT22;7781;49.690;6.472;2023-07-20T11:34:32;26.00;99.90
15364;DHT22;7781;49.690;6.472;2023-07-20T11:37:01;26.20;99.90
15364;DHT22;7781;49.690;6.472;2023-07-20T11:39:33;25.90;99.90
15364;DHT22;7781;49.690;6.472;2023-07-20T11:42:03;25.50;99.90
15364;DHT22;7781;49.690;6.472;2023-07-20T11:44:33;25.00;99.90
15364;DHT22;7781;49.690;6.472;2023-07-20T11:47:04;24.70;99.90
15364;DHT22;7781;49.690;6.472;2023-07-20T11:49:35;24.80;99.90
15364;DHT22;7781;49.690;6.472;2023-07-20T11:52:07;24.90;99.90
15364;DHT22;7781;49.690;6.472;2023-07-20T11:54:38;25.30;99.90
15364;DHT22;7781;49.690;6.472;2023-07-20T11:57:16;25.60;99.90
15364;DHT22;7781;49.690;6.472;2023-07-20T11:59:53;26.10;99.90
15364;DHT22;7781;49.690;6.472;2023-07-20T12:02:23;26.30;99.90
15364;DHT22;7781;49.690;6.472;2023-07-20T12:04:54;26.60;99.90
15364;DHT22;7781;49.690;6.472;2023-07-20T12:07:25;26.60;99.90
15364;DHT22;7781;49.690;6.472;2023-07-20T12:10:04;26.70;99.90
15364;DHT22;7781;49.690;6.472;2023-07-20T12:12:32;27.00;99.90
15364;DHT22;7781;49.690;6.472;2023-07-20T12:15:15;26.80;99.90
15364;DHT22;7781;49.690;6.472;2023-07-20T12:17:46;26.90;99.90
15364;DHT22;7781;49.690;6.472;2023-07-20T12:20:24;27.40;99.90
15364;DHT22;7781;49.690;6.472;2023-07-20T12:22:56;27.70;99.90
15364;DHT22;7781;49.690;6.472;2023-07-20T12:25:33;27.40;99.90
15364;DHT22;7781;49.690;6.472;2023-07-20T12:28:01;27.10;99.90
15364;DHT22;7781;49.690;6.472;2023-07-20T12:30:31;27.00;99.90
15364;DHT22;7781;49.690;6.472;2023-07-20T12:33:02;27.20;99.90
15364;DHT22;7781;49.690;6.472;2023-07-20T12:35:31;27.60;99.90
15364;DHT22;7781;49.690;6.472;2023-07-20T12:38:01;27.70;99.90
15364;DHT22;7781;49.690;6.472;2023-07-20T12:40:30;28.30;99.90
15364;DHT22;7781;49.690;6.472;2023-07-20T12:42:59;28.40;99.90
15364;DHT22;7781;49.690;6.472;2023-07-20T12:45:27;28.60;99.90
15364;DHT22;7781;49.690;6.472;2023-07-20T12:47:58;28.70;99.90
15364;DHT22;7781;49.690;6.472;2023-07-20T12:50:28;28.90;99.90
15364;DHT22;7781;49.690;6.472;2023-07-20T12:52:57;29.20;99.90
15364;DHT22;7781;49.690;6.472;2023-07-20T12:55:26;29.10;99.90
15364;DHT22;7781;49.690;6.472;2023-07-20T12:57:56;29.60;99.90
15364;DHT22;7781;49.690;6.472;2023-07-20T13:00:25;29.90;99.90
15364;DHT22;7781;49.690;6.472;2023-07-20T13:02:53;29.60;99.90
15364;DHT22;7781;49.690;6.472;2023-07-20T13:05:24;29.40;99.90
15364;DHT22;7781;49.690;6.472;2023-07-20T13:07:58;29.50;99.90
15364;DHT22;7781;49.690;6.472;2023-07-20T13:10:30;29.70;99.90
15364;DHT22;7781;49.690;6.472;2023-07-20T13:12:59;29.60;99.90
15364;DHT22;7781;49.690;6.472;2023-07-20T13:15:31;29.80;99.90
15364;DHT22;7781;49.690;6.472;2023-07-20T13:18:00;30.20;99.90
15364;DHT22;7781;49.690;6.472;2023-07-20T13:20:29;30.70;99.90
15364;DHT22;7781;49.690;6.472;2023-07-20T13:22:59;30.50;99.90
15364;DHT22;7781;49.690;6.472;2023-07-20T13:25:28;30.70;99.90
15364;DHT22;7781;49.690;6.472;2023-07-20T13:27:56;31.10;99.90
15364;DHT22;7781;49.690;6.472;2023-07-20T13:30:25;31.00;99.90
15364;DHT22;7781;49.690;6.472;2023-07-20T13:32:54;30.50;99.90
15364;DHT22;7781;49.690;6.472;2023-07-20T13:35:23;30.10;99.90
15364;DHT22;7781;49.690;6.472;2023-07-20T13:37:51;30.10;99.90
15364;DHT22;7781;49.690;6.472;2023-07-20T13:40:22;29.80;99.90
15364;DHT22;7781;49.690;6.472;2023-07-20T13:42:51;29.00;99.90
15364;DHT22;7781;49.690;6.472;2023-07-20T13:45:20;28.70;99.90
15364;DHT22;7781;49.690;6.472;2023-07-20T13:47:49;28.10;99.90
15364;DHT22;7781;49.690;6.472;2023-07-20T13:50:19;27.90;99.90
15364;DHT22;7781;49.690;6.472;2023-07-20T13:52:53;28.20;99.90
15364;DHT22;7781;49.690;6.472;2023-07-20T13:55:42;29.10;99.90
15364;DHT22;7781;49.690;6.472;2023-07-20T13:58:15;30.10;99.90
15364;DHT22;7781;49.690;6.472;2023-07-20T14:00:43;30.80;99.90
15364;DHT22;7781;49.690;6.472;2023-07-20T14:03:12;31.20;99.90
15364;DHT22;7781;49.690;6.472;2023-07-20T14:05:44;31.40;99.90
15364;DHT22;7781;49.690;6.472;2023-07-20T14:08:16;31.30;99.90
15364;DHT22;7781;49.690;6.472;2023-07-20T14:10:46;30.90;99.90
15364;DHT22;7781;49.690;6.472;2023-07-20T14:13:20;30.40;99.90
15364;DHT22;7781;49.690;6.472;2023-07-20T14:16:07;29.60;99.90
15364;DHT22;7781;49.690;6.472;2023-07-20T14:18:36;29.60;99.90
15364;DHT22;7781;49.690;6.472;2023-07-20T14:21:08;30.00;99.90
15364;DHT22;7781;49.690;6.472;2023-07-20T14:23:36;30.50;99.90
15364;DHT22;7781;49.690;6.472;2023-07-20T14:26:06;30.90;99.90
15364;DHT22;7781;49.690;6.472;2023-07-20T14:28:49;31.20;99.90
15364;DHT22;7781;49.690;6.472;2023-07-20T14:31:20;31.20;99.90
15364;DHT22;7781;49.690;6.472;2023-07-20T14:33:48;31.10;99.90
15364;DHT22;7781;49.690;6.472;2023-07-20T14:36:19;31.00;99.90
15364;DHT22;7781;49.690;6.472;2023-07-20T14:38:48;30.70;99.90
15364;DHT22;7781;49.690;6.472;2023-07-20T14:41:18;30.70;99.90
15364;DHT22;7781;49.690;6.472;2023-07-20T14:43:47;31.20;99.90
15364;DHT22;7781;49.690;6.472;2023-07-20T14:46:16;31.70;99.90
15364;DHT22;7781;49.690;6.472;2023-07-20T14:48:50;32.10;99.90
15364;DHT22;7781;49.690;6.472;2023-07-20T14:51:19;32.40;99.90
15364;DHT22;7781;49.690;6.472;2023-07-20T14:53:48;32.70;99.90
15364;DHT22;7781;49.690;6.472;2023-07-20T14:56:18;31.90;99.90
15364;DHT22;7781;49.690;6.472;2023-07-20T14:58:46;32.20;99.90
15364;DHT22;7781;49.690;6.472;2023-07-20T15:01:15;32.20;99.90
15364;DHT22;7781;49.690;6.472;2023-07-20T15:03:43;32.10;99.90
15364;DHT22;7781;49.690;6.472;2023-07-20T15:06:12;32.10;99.90
15364;DHT22;7781;49.690;6.472;2023-07-20T15:08:41;32.20;99.90
15364;DHT22;7781;49.690;6.472;2023-07-20T15:11:12;32.80;99.90
15364;DHT22;7781;49.690;6.472;2023-07-20T15:13:42;32.60;99.90
15364;DHT22;7781;49.690;6.472;2023-07-20T15:16:11;32.50;99.90
15364;DHT22;7781;49.690;6.472;2023-07-20T15:18:41;32.10;99.90
15364;DHT22;7781;49.690;6.472;2023-07-20T15:21:14;31.80;99.90
15364;DHT22;7781;49.690;6.472;2023-07-20T15:23:43;31.80;99.90
15364;DHT22;7781;49.690;6.472;2023-07-20T15:26:12;31.80;99.90
15364;DHT22;7781;49.690;6.472;2023-07-20T15:28:43;31.40;99.90
15364;DHT22;7781;49.690;6.472;2023-07-20T15:31:12;31.00;99.90
15364;DHT22;7781;49.690;6.472;2023-07-20T15:33:41;30.90;99.90
15364;DHT22;7781;49.690;6.472;2023-07-20T15:36:10;30.30;99.90
15364;DHT22;7781;49.690;6.472;2023-07-20T15:38:39;30.10;99.90
15364;DHT22;7781;49.690;6.472;2023-07-20T15:41:09;29.90;99.90
15364;DHT22;7781;49.690;6.472;2023-07-20T15:43:39;29.60;99.90
15364;DHT22;7781;49.690;6.472;2023-07-20T15:49:11;30.10;99.90
15364;DHT22;7781;49.690;6.472;2023-07-20T15:51:41;30.70;99.90
15364;DHT22;7781;49.690;6.472;2023-07-20T15:54:10;31.00;99.90
15364;DHT22;7781;49.690;6.472;2023-07-20T15:56:39;30.30;99.90
15364;DHT22;7781;49.690;6.472;2023-07-20T15:59:09;30.00;99.90
15364;DHT22;7781;49.690;6.472;2023-07-20T16:01:39;30.10;99.90
15364;DHT22;7781;49.690;6.472;2023-07-20T16:04:11;30.20;99.90
15364;DHT22;7781;49.690;6.472;2023-07-20T16:06:40;29.90;99.90
15364;DHT22;7781;49.690;6.472;2023-07-20T16:09:10;29.70;99.90
15364;DHT22;7781;49.690;6.472;2023-07-20T16:11:39;29.40;99.90
15364;DHT22;7781;49.690;6.472;2023-07-20T16:14:08;29.00;99.90